Time;durP1;ratioP1;P1;durP2;ratioP2;P2;SDS_P1;SDS_P2;PMS_P1;PMS_P2;Temp;Humidity;BMP_temperature;BMP_pressure;BME280_temperature;BME280_humidity;BME280_pressure;Samples;Min_cycle;Max_cycle;Signal;HPM_P1;HPM_P2
2022/10/17 00:00:48;;;;;;;9.37;4.30;;;;;;;6.22;83.67;96979.70;1736306;82;21081;-69
2022/10/17 00:03:17;;;;;;;10.40;4.57;;;;;;;6.18;83.73;96982.22;1739079;82;21028;-69
2022/10/17 00:05:47;;;;;;;8.87;4.77;;;;;;;6.09;83.55;96989.44;1736343;82;21029;-68
2022/10/17 00:08:17;;;;;;;7.03;4.03;;;;;;;6.06;84.76;96983.71;1746077;82;21113;-68
2022/10/17 00:10:43;;;;;;;8.23;3.70;;;;;;;5.99;84.45;96983.12;1746858;81;21032;-68
2022/10/17 00:13:11;;;;;;;7.43;4.53;;;;;;;5.94;84.82;96986.06;1745783;82;21013;-68
2022/10/17 00:15:42;;;;;;;13.00;3.97;;;;;;;5.91;84.77;96987.28;1738260;81;21036;-68
2022/10/17 00:18:09;;;;;;;7.73;3.80;;;;;;;5.93;84.52;96988.20;1738275;82;21037;-68
2022/10/17 00:20:35;;;;;;;7.77;4.07;;;;;;;5.88;83.62;96995.08;1746393;82;21526;-67
2022/10/17 00:23:02;;;;;;;8.43;3.93;;;;;;;5.86;83.85;96992.84;1749742;81;21016;-67
2022/10/17 00:25:29;;;;;;;7.77;3.80;;;;;;;5.87;84.08;96997.22;1743977;81;21510;-68
2022/10/17 00:27:55;;;;;;;7.33;3.63;;;;;;;5.83;84.03;96994.97;1737887;81;21483;-68
2022/10/17 00:30:22;;;;;;;6.63;3.67;;;;;;;5.90;84.26;96989.89;1741791;82;21004;-68
2022/10/17 00:32:49;;;;;;;8.70;4.40;;;;;;;5.94;84.10;96993.92;1737779;82;21045;-68
2022/10/17 00:35:16;;;;;;;10.27;4.10;;;;;;;5.99;84.44;96995.34;1738627;82;21563;-68
2022/10/17 00:37:42;;;;;;;8.10;4.07;;;;;;;6.00;84.36;96997.13;1736135;82;21022;-68
2022/10/17 00:40:10;;;;;;;8.60;4.20;;;;;;;6.02;84.21;96998.94;1740565;82;21029;-68
2022/10/17 00:42:39;;;;;;;10.50;3.33;;;;;;;6.07;84.25;97000.31;1739153;82;21080;-69
2022/10/17 00:45:17;;;;;;;5.07;3.60;;;;;;;6.01;83.32;96992.33;1739757;82;21065;-69
2022/10/17 00:47:48;;;;;;;4.83;3.47;;;;;;;5.98;83.68;96997.52;1734375;82;21542;-68
2022/10/17 00:50:15;;;;;;;6.07;3.90;;;;;;;6.02;83.76;96995.00;1741718;82;21096;-68
2022/10/17 00:52:46;;;;;;;9.17;3.90;;;;;;;5.97;83.67;96993.11;1705525;82;21869;-68
2022/10/17 00:55:28;;;;;;;5.03;3.70;;;;;;;5.97;83.76;96994.02;1738914;82;21495;-68
2022/10/17 00:57:57;;;;;;;7.92;3.75;;;;;;;6.04;83.97;96991.08;1721430;82;20986;-68
2022/10/17 01:00:25;;;;;;;6.47;3.50;;;;;;;6.08;83.71;96993.36;1749051;82;21073;-68
2022/10/17 01:02:52;;;;;;;11.63;3.93;;;;;;;6.02;83.40;96989.77;1734272;82;21036;-68
2022/10/17 01:05:19;;;;;;;7.57;3.70;;;;;;;6.03;83.67;96993.26;1737671;82;21503;-68
2022/10/17 01:07:50;;;;;;;7.30;3.37;;;;;;;6.00;83.63;96992.77;1737966;81;21059;-68
2022/10/17 01:10:17;;;;;;;9.03;4.80;;;;;;;6.04;83.19;96999.82;1736899;81;21072;-68
2022/10/17 01:13:08;;;;;;;8.67;4.50;;;;;;;5.96;84.21;96996.16;1742370;82;21068;-69
2022/10/17 01:16:03;;;;;;;7.20;3.83;;;;;;;5.92;83.75;96992.09;1741829;82;21013;-68
2022/10/17 01:18:59;;;;;;;6.43;4.37;;;;;;;5.93;83.61;96998.69;1701905;81;21033;-69
2022/10/17 01:21:49;;;;;;;9.90;4.60;;;;;;;5.78;83.12;96996.61;1737356;82;21001;-69
2022/10/17 01:24:55;;;;;;;6.20;4.13;;;;;;;5.58;83.45;96995.27;1731345;82;21569;-69
2022/10/17 01:27:30;;;;;;;9.80;5.07;;;;;;;5.40;83.93;96994.42;1737389;82;21511;-68
2022/10/17 01:30:22;;;;;;;11.13;5.40;;;;;;;5.41;84.81;97000.09;1738977;81;21049;-68
2022/10/17 01:32:57;;;;;;;7.83;4.30;;;;;;;5.41;84.44;97003.59;1739141;82;21534;-68
2022/10/17 01:35:57;;;;;;;10.23;4.60;;;;;;;5.40;84.36;97004.89;1738668;81;21037;-68
2022/10/17 01:38:33;;;;;;;8.90;4.50;;;;;;;5.35;85.22;97007.39;1737839;81;21049;-68
2022/10/17 01:41:08;;;;;;;7.47;4.13;;;;;;;5.30;84.83;97008.13;1740792;82;21077;-68
2022/10/17 01:44:03;;;;;;;6.70;3.80;;;;;;;5.26;85.91;97011.50;1740168;81;21025;-69
2022/10/17 01:46:35;;;;;;;8.87;4.30;;;;;;;5.21;84.96;97010.08;1736846;82;21021;-68
2022/10/17 01:49:06;;;;;;;5.97;4.10;;;;;;;5.20;85.36;97014.43;1744449;82;21010;-68
2022/10/17 01:51:46;;;;;;;6.13;3.87;;;;;;;5.09;84.60;97013.69;1745584;82;20998;-69
2022/10/17 01:54:42;;;;;;;7.30;4.80;;;;;;;5.02;84.05;97015.28;1745499;82;20994;-69
2022/10/17 01:57:14;;;;;;;6.77;4.07;;;;;;;4.91;84.67;97015.02;1737226;82;21080;-70
2022/10/17 01:59:44;;;;;;;10.97;4.10;;;;;;;4.95;86.00;97022.50;1738545;82;21510;-69
2022/10/17 02:02:13;;;;;;;10.10;4.33;;;;;;;5.01;86.01;97022.65;1705693;82;20994;-70
2022/10/17 02:04:41;;;;;;;10.27;4.23;;;;;;;5.13;85.93;97020.78;1739860;82;21033;-69
2022/10/17 02:07:12;;;;;;;5.57;4.10;;;;;;;5.19;85.90;97021.83;1736218;82;20982;-68
2022/10/17 02:09:39;;;;;;;7.50;4.13;;;;;;;5.28;86.12;97017.23;1738502;82;21033;-69
2022/10/17 02:12:36;;;;;;;6.27;3.93;;;;;;;5.35;85.59;97020.91;1741668;82;21068;-68
2022/10/17 02:15:47;;;;;;;11.07;3.60;;;;;;;5.37;85.49;97013.98;1742226;81;21044;-69
2022/10/17 02:18:39;;;;;;;6.40;3.47;;;;;;;5.47;85.78;97020.30;1740002;81;21001;-68
2022/10/17 02:21:11;;;;;;;8.47;3.73;;;;;;;5.47;84.92;97021.20;1740986;82;21547;-69
2022/10/17 02:23:52;;;;;;;13.10;3.77;;;;;;;5.37;84.50;97020.09;1746199;82;20999;-68
2022/10/17 02:26:36;;;;;;;10.23;4.10;;;;;;;5.32;84.63;97023.45;1745532;81;21026;-69
2022/10/17 02:29:12;;;;;;;;;;;;;;;5.45;85.39;97032.48;1745389;82;21029;-69
2022/10/17 02:31:59;;;;;;;4.40;3.20;;;;;;;5.53;85.40;97025.27;1738910;82;20404;-69
2022/10/17 02:34:31;;;;;;;9.07;5.20;;;;;;;5.42;84.27;97035.48;1737231;81;21013;-70
2022/10/17 02:37:01;;;;;;;7.37;4.17;;;;;;;5.38;84.23;97035.37;1710372;82;21036;-69
2022/10/17 02:39:31;;;;;;;18.53;4.87;;;;;;;5.34;84.00;97037.44;1734468;82;21037;-70
2022/10/17 02:42:02;;;;;;;7.17;3.77;;;;;;;5.43;85.08;97044.22;1739882;81;21096;-69
2022/10/17 02:44:31;;;;;;;5.27;3.77;;;;;;;5.45;84.75;97046.88;1706648;82;21001;-70
2022/10/17 02:47:30;;;;;;;10.53;4.50;;;;;;;5.43;84.48;97044.22;1741143;82;21029;-69
2022/10/17 02:49:57;;;;;;;11.07;4.23;;;;;;;5.36;84.43;97042.29;1735780;81;21018;-70
2022/10/17 02:52:45;;;;;;;7.13;3.80;;;;;;;5.37;84.36;97038.41;1738638;81;21013;-69
2022/10/17 02:55:19;;;;;;;6.57;4.27;;;;;;;5.40;84.62;97040.22;1739277;82;21056;-69
2022/10/17 02:57:53;;;;;;;7.17;3.87;;;;;;;5.39;84.48;97039.34;1709971;81;21139;-70
2022/10/17 03:00:24;;;;;;;8.53;5.13;;;;;;;5.42;84.70;97037.22;1735830;82;20993;-68
2022/10/17 03:02:53;;;;;;;14.50;5.03;;;;;;;5.39;85.00;97041.96;1737884;81;21037;-69
2022/10/17 03:05:27;;;;;;;7.37;4.30;;;;;;;5.43;85.14;97036.36;1746540;82;21101;-68
2022/10/17 03:07:55;;;;;;;8.57;4.27;;;;;;;5.39;85.06;97042.36;1738487;81;21526;-69
2022/10/17 03:10:24;;;;;;;7.00;3.90;;;;;;;5.33;84.74;97039.60;1741502;81;21595;-68
2022/10/17 03:12:51;;;;;;;10.13;3.83;;;;;;;5.33;85.24;97037.86;1739316;81;21534;-69
2022/10/17 03:15:18;;;;;;;5.00;3.87;;;;;;;5.29;84.99;97042.98;1741444;82;20992;-69
2022/10/17 03:17:45;;;;;;;6.90;4.20;;;;;;;5.24;85.29;97041.58;1741524;82;21056;-69
2022/10/17 03:20:12;;;;;;;17.43;5.53;;;;;;;5.16;84.94;97045.28;1741406;82;21040;-69
2022/10/17 03:22:38;;;;;;;8.80;4.73;;;;;;;5.16;85.45;97051.82;1737992;82;21037;-69
2022/10/17 03:25:07;;;;;;;8.73;4.67;;;;;;;5.14;85.65;97045.69;1737784;82;21542;-70
2022/10/17 03:27:35;;;;;;;4.93;3.60;;;;;;;5.11;85.59;97048.20;1738343;81;20977;-70
2022/10/17 03:30:02;;;;;;;5.53;3.90;;;;;;;5.09;85.81;97048.61;1746522;82;21033;-69
2022/10/17 03:32:34;;;;;;;20.27;11.63;;;;;;;5.05;85.14;97049.36;1741934;82;20982;-69
2022/10/17 03:35:02;;;;;;;10.73;5.67;;;;;;;5.02;85.02;97054.95;1737855;81;21033;-70
2022/10/17 03:37:29;;;;;;;9.67;4.73;;;;;;;5.05;85.24;97059.83;1738150;81;21072;-69
2022/10/17 03:39:56;;;;;;;9.87;4.60;;;;;;;5.08;85.14;97055.98;1742873;82;21012;-69
2022/10/17 03:42:22;;;;;;;4.70;3.77;;;;;;;5.08;85.19;97053.79;1734135;82;21034;-69
2022/10/17 03:44:49;;;;;;;8.20;5.07;;;;;;;5.08;85.31;97051.17;1732901;81;21021;-68
2022/10/17 03:47:16;;;;;;;8.23;5.17;;;;;;;5.09;85.97;97060.78;1742565;82;21028;-69
2022/10/17 03:49:43;;;;;;;11.87;4.47;;;;;;;5.13;85.78;97057.41;1738243;82;21099;-69
2022/10/17 03:52:12;;;;;;;8.67;4.90;;;;;;;5.18;85.67;97055.37;1734324;82;21085;-69
2022/10/17 03:54:39;;;;;;;10.03;4.20;;;;;;;5.21;85.82;97061.10;1744544;82;21041;-68
2022/10/17 03:57:06;;;;;;;5.33;3.50;;;;;;;5.25;85.26;97064.70;1711798;82;21057;-70
2022/10/17 03:59:33;;;;;;;7.80;4.37;;;;;;;5.29;85.55;97059.59;1739072;82;21119;-69
2022/10/17 04:02:02;;;;;;;15.10;7.80;;;;;;;5.18;85.13;97061.91;1738128;82;21036;-69
2022/10/17 04:04:29;;;;;;;21.63;12.30;;;;;;;5.05;83.64;97063.75;1739602;82;21037;-70
2022/10/17 04:06:55;;;;;;;22.77;13.70;;;;;;;4.96;84.34;97062.19;1739739;81;20997;-69
2022/10/17 04:09:22;;;;;;;23.30;12.17;;;;;;;4.96;85.36;97060.48;1745331;82;21108;-70
2022/10/17 04:11:51;;;;;;;28.80;17.97;;;;;;;5.08;85.62;97066.44;1736095;82;21017;-69
2022/10/17 04:14:17;;;;;;;23.77;11.83;;;;;;;5.06;85.60;97063.32;1739183;82;21044;-69
2022/10/17 04:16:44;;;;;;;22.00;9.50;;;;;;;5.12;85.64;97056.96;1746271;82;21036;-69
2022/10/17 04:19:13;;;;;;;11.80;7.13;;;;;;;5.22;86.00;97062.89;1738671;81;21033;-69
2022/10/17 04:21:41;;;;;;;10.90;5.10;;;;;;;5.30;85.69;97063.97;1739600;82;21025;-69
2022/10/17 04:24:11;;;;;;;18.27;8.17;;;;;;;5.33;85.55;97057.92;1738356;81;21076;-69
2022/10/17 04:26:42;;;;;;;11.43;7.23;;;;;;;5.34;84.92;97057.06;1737627;81;21033;-69
2022/10/17 04:29:09;;;;;;;9.50;6.83;;;;;;;5.42;85.53;97062.97;1741372;82;21053;-69
2022/10/17 04:31:35;;;;;;;11.03;6.60;;;;;;;5.51;85.43;97052.25;1742752;82;21076;-69
2022/10/17 04:34:07;;;;;;;12.43;6.40;;;;;;;5.45;84.31;97057.36;1741337;82;21081;-69
2022/10/17 04:36:34;;;;;;;34.20;21.70;;;;;;;5.21;83.19;97067.21;1743997;82;21009;-70
2022/10/17 04:39:04;;;;;;;45.50;29.00;;;;;;;4.91;83.57;97063.80;1740894;81;20985;-69
2022/10/17 04:41:31;;;;;;;10.70;7.60;;;;;;;4.88;83.95;97063.72;1739084;81;21025;-69
2022/10/17 04:43:58;;;;;;;5.30;4.43;;;;;;;4.92;84.23;97062.55;1741741;81;21166;-70
2022/10/17 04:46:25;;;;;;;12.97;4.97;;;;;;;4.96;84.41;97069.64;1741631;82;21036;-69
2022/10/17 04:48:53;;;;;;;25.80;14.60;;;;;;;5.02;85.57;97068.03;1736030;81;21056;-70
2022/10/17 04:51:20;;;;;;;24.13;17.80;;;;;;;4.96;84.73;97066.11;1738976;81;21542;-72
2022/10/17 04:54:00;;;;;;;20.27;14.27;;;;;;;4.87;84.46;97064.58;1747283;81;20990;-69
2022/10/17 04:56:28;;;;;;;17.60;11.90;;;;;;;4.78;84.71;97071.30;1740044;82;21539;-71
2022/10/17 04:58:54;;;;;;;14.83;10.73;;;;;;;4.73;85.34;97068.98;1737125;81;21044;-72
2022/10/17 05:01:23;;;;;;;12.63;7.83;;;;;;;4.72;85.53;97072.45;1734689;82;21076;-69
2022/10/17 05:03:52;;;;;;;13.77;6.70;;;;;;;4.77;85.62;97072.16;1725717;82;21101;-70
2022/10/17 05:06:26;;;;;;;17.37;9.20;;;;;;;4.84;86.14;97077.55;1720753;82;21085;-63
2022/10/17 05:09:11;;;;;;;8.57;6.60;;;;;;;4.86;85.80;97082.40;1727049;82;21100;-71
2022/10/17 05:11:39;;;;;;;9.90;5.73;;;;;;;4.81;85.99;97077.47;1720231;82;21118;-69
2022/10/17 05:14:06;;;;;;;11.53;7.33;;;;;;;4.78;85.99;97080.45;1729632;82;21026;-73
2022/10/17 05:16:33;;;;;;;12.10;8.83;;;;;;;4.82;86.05;97080.14;1713875;82;21633;-75
2022/10/17 05:19:00;;;;;;;16.80;8.70;;;;;;;4.85;85.59;97084.14;1722095;82;21699;-74
2022/10/17 05:21:29;;;;;;;11.37;6.10;;;;;;;4.92;86.26;97090.00;1721712;82;21125;-71
2022/10/17 05:23:57;;;;;;;12.43;7.70;;;;;;;5.03;86.78;97092.91;1724192;82;21037;-73
2022/10/17 05:26:25;;;;;;;14.47;8.80;;;;;;;5.04;86.58;97092.47;1699588;84;21093;-73
2022/10/17 05:28:53;;;;;;;15.03;8.70;;;;;;;5.03;86.28;97090.28;1700665;84;21507;-73
2022/10/17 05:31:21;;;;;;;10.97;7.37;;;;;;;5.07;86.12;97095.20;1700760;84;21093;-82
2022/10/17 05:33:48;;;;;;;7.63;6.00;;;;;;;5.09;85.66;97100.02;1700053;84;21125;-78
2022/10/17 05:36:15;;;;;;;21.50;11.70;;;;;;;5.14;86.34;97095.80;1698768;84;21015;-76
2022/10/17 05:38:42;;;;;;;15.97;10.27;;;;;;;5.27;87.10;97099.66;1698580;84;21138;-76
2022/10/17 05:41:09;;;;;;;12.70;9.83;;;;;;;5.36;86.75;97099.44;1700148;84;21096;-82
2022/10/17 05:43:37;;;;;;;17.57;12.53;;;;;;;5.53;86.92;97105.55;1702608;84;21208;-84
2022/10/17 05:46:05;;;;;;;17.57;11.53;;;;;;;5.68;86.72;97111.16;1699571;84;21015;-82
2022/10/17 05:48:33;;;;;;;15.63;7.93;;;;;;;5.91;87.05;97108.22;1698034;84;21053;-73
2022/10/17 05:51:07;;;;;;;7.93;4.03;;;;;;;6.15;87.15;97110.54;1699483;84;21216;-76
2022/10/17 05:53:38;;;;;;;8.57;4.40;;;;;;;6.25;85.79;97102.95;1696880;84;21087;-74
2022/10/17 05:56:10;;;;;;;18.47;8.57;;;;;;;6.25;85.23;97110.81;1672259;84;21103;-75
2022/10/17 05:58:43;;;;;;;18.10;10.90;;;;;;;6.27;86.09;97113.05;1695912;84;21094;-79
2022/10/17 06:01:12;;;;;;;14.77;10.13;;;;;;;6.43;86.59;97114.27;1702190;84;21524;-76
2022/10/17 06:03:39;;;;;;;16.70;9.83;;;;;;;6.58;85.81;97115.45;1700575;84;21061;-71
2022/10/17 06:06:11;;;;;;;13.43;9.80;;;;;;;6.76;86.41;97123.70;1701313;84;21061;-71
2022/10/17 06:08:40;;;;;;;12.07;8.30;;;;;;;6.96;86.46;97120.17;1698707;84;21098;-77
2022/10/17 06:11:10;;;;;;;13.07;9.57;;;;;;;7.16;86.32;97125.81;1701589;83;21100;-75
2022/10/17 06:13:38;;;;;;;12.63;9.83;;;;;;;7.33;86.29;97119.55;1701577;84;21088;-69
2022/10/17 06:16:07;;;;;;;10.70;4.23;;;;;;;7.46;85.33;97123.28;1696641;84;21667;-71
2022/10/17 06:18:34;;;;;;;7.67;4.93;;;;;;;7.47;84.41;97123.75;1694739;84;21189;-73
2022/10/17 06:21:10;;;;;;;9.33;6.00;;;;;;;7.45;84.43;97135.53;1698773;84;21105;-74
2022/10/17 06:23:38;;;;;;;10.20;6.40;;;;;;;7.45;84.50;97134.66;1698984;84;21042;-76
2022/10/17 06:26:10;;;;;;;6.17;5.30;;;;;;;7.45;84.62;97142.09;1701035;84;21532;-72
2022/10/17 06:28:37;;;;;;;8.17;5.33;;;;;;;7.48;84.74;97145.20;1697632;84;21160;-76
2022/10/17 06:31:13;;;;;;;7.70;6.23;;;;;;;7.50;84.64;97144.81;1680865;81;21029;-71
2022/10/17 06:33:41;;;;;;;7.23;6.00;;;;;;;7.58;85.06;97139.27;1727630;82;21128;-77
2022/10/17 06:36:12;;;;;;;9.60;7.70;;;;;;;7.73;85.78;97143.47;1729405;82;21073;-71
2022/10/17 06:38:40;;;;;;;11.20;7.47;;;;;;;7.92;85.84;97146.43;1725227;82;21034;-72
2022/10/17 06:41:14;;;;;;;9.43;7.20;;;;;;;8.09;85.63;97147.59;1725803;82;21030;-72
2022/10/17 06:43:45;;;;;;;9.90;7.00;;;;;;;8.24;85.78;97150.90;1723226;82;21034;-75
2022/10/17 06:46:30;;;;;;;9.00;7.30;;;;;;;8.40;85.64;97152.91;1727109;82;21164;-79
2022/10/17 06:49:03;;;;;;;10.93;9.03;;;;;;;8.57;85.45;97152.30;1730147;82;21081;-80
2022/10/17 06:51:38;;;;;;;9.13;7.30;;;;;;;8.68;85.18;97141.91;1680273;83;21070;-73
2022/10/17 06:54:06;;;;;;;16.33;7.67;;;;;;;8.84;85.09;97147.81;1707611;81;21048;-72
2022/10/17 06:56:35;;;;;;;9.23;6.57;;;;;;;8.97;84.92;97140.55;1708250;83;21038;-72
2022/10/17 06:59:04;;;;;;;12.17;7.47;;;;;;;9.11;84.67;97145.97;1651837;83;21077;-72
2022/10/17 07:01:33;;;;;;;10.80;6.80;;;;;;;9.22;84.38;97140.41;1702914;83;22330;-73
2022/10/17 07:04:01;;;;;;;11.50;7.47;;;;;;;9.35;84.37;97146.70;1706751;83;21088;-73
2022/10/17 07:06:29;;;;;;;14.17;8.40;;;;;;;9.47;84.42;97141.97;1702335;83;21147;-79
2022/10/17 07:08:58;;;;;;;11.57;8.47;;;;;;;9.63;84.33;97149.63;1703691;83;21597;-73
2022/10/17 07:11:25;;;;;;;16.33;9.47;;;;;;;9.75;84.08;97151.03;1703459;83;21111;-71
2022/10/17 07:13:52;;;;;;;14.27;10.10;;;;;;;9.89;83.96;97147.22;1709611;83;21160;-69
2022/10/17 07:16:20;;;;;;;19.97;10.13;;;;;;;10.06;83.85;97153.97;1709679;83;21124;-73
2022/10/17 07:18:50;;;;;;;17.80;9.83;;;;;;;10.18;83.60;97147.48;1709131;83;21049;-71
2022/10/17 07:21:18;;;;;;;21.80;8.47;;;;;;;10.31;83.42;97153.77;1710028;83;21049;-75
2022/10/17 07:23:44;;;;;;;19.77;8.47;;;;;;;10.44;83.08;97148.14;1707630;83;21088;-72
2022/10/17 07:26:15;;;;;;;15.00;7.90;;;;;;;10.57;82.95;97149.97;1707890;82;21041;-72
2022/10/17 07:28:44;;;;;;;15.80;7.70;;;;;;;10.72;82.88;97151.83;1723790;82;21011;-72
2022/10/17 07:31:22;;;;;;;21.27;8.00;;;;;;;10.87;82.38;97152.35;1711477;81;21024;-73
2022/10/17 07:33:49;;;;;;;21.73;7.40;;;;;;;11.02;82.37;97158.59;1733086;82;21144;-73
2022/10/17 07:36:17;;;;;;;21.23;8.00;;;;;;;11.18;82.13;97158.65;1727501;82;21056;-79
2022/10/17 07:38:44;;;;;;;17.17;7.42;;;;;;;11.35;82.05;97160.05;1706335;83;21038;-76
2022/10/17 07:41:12;;;;;;;23.50;9.00;;;;;;;11.53;82.04;97152.61;1734003;83;21056;-81
2022/10/17 07:43:40;;;;;;;15.13;7.50;;;;;;;11.70;81.90;97157.05;1734548;82;21073;-77
2022/10/17 07:46:10;;;;;;;24.80;8.03;;;;;;;11.93;81.24;97154.05;1732551;83;21535;-76
2022/10/17 07:48:39;;;;;;;18.25;7.45;;;;;;;12.11;81.06;97158.02;1729897;82;21069;-78
2022/10/17 07:51:08;;;;;;;16.02;7.65;;;;;;;12.32;81.34;97155.80;1733013;83;21010;-79
2022/10/17 07:53:39;;;;;;;20.12;6.60;;;;;;;12.51;79.94;97162.85;1730324;82;21053;-85
2022/10/17 07:56:08;;;;;;;18.70;6.58;;;;;;;12.62;79.52;97160.18;1727301;82;21120;-81
2022/10/17 07:58:36;;;;;;;13.80;6.00;;;;;;;12.77;79.86;97160.59;1731279;82;20982;-70
2022/10/17 08:01:06;;;;;;;12.78;5.50;;;;;;;12.97;79.98;97147.30;1712801;82;21068;-84
2022/10/17 08:03:33;;;;;;;12.53;6.33;;;;;;;13.20;78.99;97145.89;1734707;82;21101;-81
2022/10/17 08:06:01;;;;;;;14.00;6.47;;;;;;;13.43;78.77;97139.22;1712587;83;21103;-80
2022/10/17 08:08:28;;;;;;;10.68;6.47;;;;;;;13.57;77.02;97144.44;1705666;83;21096;-71
2022/10/17 08:11:01;;;;;;;17.30;6.25;;;;;;;13.67;76.94;97143.94;1729055;81;21053;-78
2022/10/17 08:13:27;;;;;;;17.40;7.27;;;;;;;13.77;75.16;97139.89;1733288;82;21130;-81
2022/10/17 08:16:04;;;;;;;11.88;6.00;;;;;;;13.93;75.81;97149.94;1737277;82;21034;-76
2022/10/17 08:18:31;;;;;;;15.65;6.28;;;;;;;14.05;75.79;97139.24;1728201;82;21085;-79
2022/10/17 08:21:05;;;;;;;14.43;6.25;;;;;;;14.23;75.76;97143.52;1731700;83;21045;-77
2022/10/17 08:23:32;;;;;;;11.57;6.85;;;;;;;14.37;75.31;97149.19;1736698;82;21049;-80
2022/10/17 08:26:00;;;;;;;14.30;6.60;;;;;;;14.47;74.86;97143.77;1732073;82;21049;-78
2022/10/17 08:28:27;;;;;;;12.40;6.95;;;;;;;14.60;74.24;97156.52;1735528;82;21585;-74
2022/10/17 08:31:08;;;;;;;9.25;6.33;;;;;;;14.73;74.14;97155.08;1708071;84;21018;-81
2022/10/17 08:33:34;;;;;;;12.25;6.60;;;;;;;14.83;73.48;97148.31;1729575;82;21073;-79
2022/10/17 08:36:03;;;;;;;9.98;6.92;;;;;;;14.98;73.01;97152.59;1724822;82;21078;-72
2022/10/17 08:38:31;;;;;;;10.35;6.47;;;;;;;15.10;72.08;97151.59;1701508;84;21054;-73
2022/10/17 08:41:02;;;;;;;14.38;6.35;;;;;;;15.23;71.68;97154.98;1704441;83;21552;-73
2022/10/17 08:44:11;;;;;;;13.55;6.58;;;;;;;15.34;71.12;97153.05;1718446;82;21622;-69
2022/10/17 08:46:42;;;;;;;15.38;5.28;;;;;;;15.45;70.21;97155.14;1740604;82;21483;-71
2022/10/17 08:49:41;;;;;;;12.05;4.70;;;;;;;15.62;67.32;97153.57;1718521;82;21034;-74
2022/10/17 08:52:39;;;;;;;7.83;4.90;;;;;;;15.77;68.18;97152.09;1686832;84;21121;-73
2022/10/17 08:55:17;;;;;;;9.90;5.05;;;;;;;15.93;67.81;97153.20;1735368;82;21132;-76
2022/10/17 08:57:43;;;;;;;8.53;4.72;;;;;;;16.05;66.20;97158.77;1718069;82;20981;-73
2022/10/17 09:00:18;;;;;;;8.05;5.03;;;;;;;16.20;67.09;97151.87;1721209;82;21041;-72
2022/10/17 09:03:28;;;;;;;6.92;4.90;;;;;;;16.37;66.51;97155.59;1722775;82;21179;-70
2022/10/17 09:06:18;;;;;;;7.03;4.62;;;;;;;16.51;64.33;97153.59;1705703;82;21049;-72
2022/10/17 09:08:50;;;;;;;6.80;4.35;;;;;;;16.68;64.05;97157.27;1708867;83;21159;-72
2022/10/17 09:11:45;;;;;;;9.20;4.90;;;;;;;16.81;63.38;97156.66;1681799;81;21105;-73
2022/10/17 09:14:26;;;;;;;18.30;4.60;;;;;;;16.90;63.57;97139.61;1668072;85;21097;-72
2022/10/17 09:17:15;;;;;;;6.00;4.28;;;;;;;17.02;63.06;97142.04;1679094;85;21540;-72
2022/10/17 09:20:10;;;;;;;7.37;4.67;;;;;;;17.18;62.64;97140.81;1675002;84;21074;-72
2022/10/17 09:22:48;;;;;;;6.00;4.00;;;;;;;17.24;61.80;97151.37;1669784;85;21122;-73
2022/10/17 09:25:18;;;;;;;8.90;4.08;;;;;;;17.31;61.89;97149.45;1711828;83;21123;-72
2022/10/17 09:27:50;;;;;;;5.30;4.30;;;;;;;17.46;62.54;97145.59;1707861;83;21029;-72
2022/10/17 09:30:37;;;;;;;7.35;4.10;;;;;;;17.61;61.70;97154.59;1712662;83;21033;-72
2022/10/17 09:33:37;;;;;;;6.33;4.40;;;;;;;17.68;56.22;97150.02;1714888;83;21063;-72
2022/10/17 09:36:12;;;;;;;5.67;3.98;;;;;;;17.76;58.99;97153.39;1708270;83;21037;-72
2022/10/17 09:38:55;;;;;;;5.08;4.00;;;;;;;17.89;58.31;97153.59;1688201;83;21116;-72
2022/10/17 09:41:33;;;;;;;8.13;4.65;;;;;;;17.93;56.93;97149.05;1708688;83;21100;-73
2022/10/17 09:44:17;;;;;;;4.17;3.75;;;;;;;18.08;58.36;97146.48;1715027;83;21085;-73
2022/10/17 09:47:18;;;;;;;6.28;4.60;;;;;;;18.22;57.96;97154.16;1716921;83;21081;-73
2022/10/17 09:49:47;;;;;;;7.95;4.03;;;;;;;18.34;57.49;97152.53;1712500;83;21093;-72
2022/10/17 09:52:31;;;;;;;7.58;3.98;;;;;;;18.48;56.73;97150.87;1716207;83;21005;-72
2022/10/17 09:55:21;;;;;;;6.40;4.22;;;;;;;18.50;53.96;97154.39;1703292;83;21040;-72
2022/10/17 09:57:58;;;;;;;6.22;4.40;;;;;;;18.53;56.34;97159.19;1707913;84;21023;-73
2022/10/17 10:00:38;;;;;;;5.05;3.98;;;;;;;18.65;55.61;97159.77;1707247;84;21091;-73
2022/10/17 10:03:24;;;;;;;5.87;3.87;;;;;;;18.75;55.47;97151.97;1707320;83;21518;-73
2022/10/17 10:06:14;;;;;;;5.08;4.50;;;;;;;18.78;52.40;97154.59;1706282;84;21028;-73
2022/10/17 10:08:59;;;;;;;4.33;3.85;;;;;;;18.88;53.53;97163.25;1703157;84;21022;-73
2022/10/17 10:11:46;;;;;;;4.53;3.87;;;;;;;18.98;53.21;97155.39;1711516;82;21037;-72
2022/10/17 10:14:23;;;;;;;4.22;3.45;;;;;;;19.06;52.03;97160.53;1711271;82;21036;-72
2022/10/17 10:16:52;;;;;;;7.20;5.03;;;;;;;19.24;51.50;97153.33;1709638;83;21128;-73
2022/10/17 10:19:35;;;;;;;8.15;4.03;;;;;;;19.63;50.05;97152.66;1710400;83;21044;-72
2022/10/17 10:22:06;;;;;;;7.65;4.40;;;;;;;19.99;50.96;97155.64;1711268;83;21127;-73
2022/10/17 10:24:33;;;;;;;6.12;3.62;;;;;;;20.46;50.53;97154.56;1717089;83;21087;-73
2022/10/17 10:27:03;;;;;;;5.95;4.00;;;;;;;20.88;49.44;97150.06;1711341;83;21057;-73
2022/10/17 10:29:50;;;;;;;4.90;4.30;;;;;;;21.22;44.26;97148.41;1705234;83;21041;-73
2022/10/17 10:32:34;;;;;;;6.42;4.15;;;;;;;21.44;44.46;97143.62;1705882;83;21013;-74
2022/10/17 10:35:08;;;;;;;6.45;3.98;;;;;;;21.69;42.90;97144.44;1704022;83;21037;-74
2022/10/17 10:37:40;;;;;;;7.58;3.72;;;;;;;22.15;44.12;97137.73;1707776;83;21009;-74
2022/10/17 10:40:18;;;;;;;4.65;4.08;;;;;;;22.62;44.62;97140.33;1708317;83;21578;-74
2022/10/17 10:42:51;;;;;;;5.50;3.40;;;;;;;23.10;42.62;97137.38;1707366;83;21053;-73
2022/10/17 10:45:28;;;;;;;5.10;3.60;;;;;;;23.44;40.49;97134.55;1676097;84;21023;-74
2022/10/17 10:47:58;;;;;;;6.37;3.72;;;;;;;23.61;38.46;97138.27;1707227;83;21012;-74
2022/10/17 10:50:39;;;;;;;3.50;3.20;;;;;;;23.72;35.69;97137.32;1672420;85;21027;-74
2022/10/17 10:53:32;;;;;;;4.78;3.35;;;;;;;24.09;37.36;97131.55;1711319;83;21611;-74
2022/10/17 10:56:11;;;;;;;;;;;;;;;24.27;35.45;97132.52;1709154;83;21025;-74
2022/10/17 10:58:58;;;;;;;4.35;2.92;;;;;;;24.46;36.49;97137.41;1705579;82;20397;-74
2022/10/17 11:01:51;;;;;;;7.10;3.40;;;;;;;24.60;35.84;97136.27;1715942;82;21097;-74
2022/10/17 11:04:40;;;;;;;4.22;3.20;;;;;;;25.06;37.07;97124.94;1684941;84;21031;-74
2022/10/17 11:07:48;;;;;;;6.65;3.30;;;;;;;25.36;35.75;97121.13;1702247;84;21074;-74
2022/10/17 11:10:29;;;;;;;5.58;3.10;;;;;;;25.50;33.44;97116.32;1677421;85;21034;-74
2022/10/17 11:13:04;;;;;;;2.85;2.45;;;;;;;25.69;34.00;97112.16;1706190;82;21050;-74
2022/10/17 11:15:50;;;;;;;3.15;2.80;;;;;;;25.72;31.55;97109.76;1688375;83;21574;-74
2022/10/17 11:18:29;;;;;;;5.12;3.20;;;;;;;25.76;30.58;97110.00;1702962;83;20980;-74
2022/10/17 11:21:25;;;;;;;3.22;2.90;;;;;;;25.94;32.37;97110.84;1717947;83;21041;-74
2022/10/17 11:24:09;;;;;;;4.80;2.67;;;;;;;26.24;31.71;97101.47;1677480;85;21018;-74
2022/10/17 11:26:41;;;;;;;3.55;2.58;;;;;;;26.44;31.06;97098.96;1704108;83;21542;-73
2022/10/17 11:29:11;;;;;;;4.33;3.05;;;;;;;26.80;31.00;97101.84;1710712;83;21057;-74
2022/10/17 11:31:43;;;;;;;5.85;2.87;;;;;;;27.01;29.65;97095.12;1673572;85;21137;-74
2022/10/17 11:34:26;;;;;;;3.45;2.92;;;;;;;27.05;30.75;97095.83;1709964;83;21097;-74
2022/10/17 11:37:07;;;;;;;5.95;3.10;;;;;;;27.18;29.88;97092.78;1716216;82;21579;-73
2022/10/17 11:39:42;;;;;;;3.70;2.87;;;;;;;27.06;29.57;97100.27;1709269;83;21609;-74
2022/10/17 11:42:20;;;;;;;5.67;3.12;;;;;;;27.31;28.88;97092.89;1710172;83;21057;-74
2022/10/17 11:44:51;;;;;;;5.87;3.08;;;;;;;27.33;28.18;97089.13;1713043;83;21164;-73
2022/10/17 11:47:50;;;;;;;5.72;2.90;;;;;;;27.38;29.06;97090.20;1715054;83;21523;-74
2022/10/17 11:50:27;;;;;;;5.58;2.87;;;;;;;27.63;28.20;97089.04;1705550;83;21025;-73
2022/10/17 11:52:59;;;;;;;6.12;2.90;;;;;;;27.71;27.76;97096.69;1714920;83;21072;-74
2022/10/17 11:55:29;;;;;;;6.53;2.70;;;;;;;28.02;26.97;97087.97;1715377;82;21037;-74
2022/10/17 11:58:44;;;;;;;5.90;2.67;;;;;;;27.92;26.89;97086.82;1706961;83;21101;-74
2022/10/17 12:01:40;;;;;;;4.85;2.80;;;;;;;27.92;27.22;97091.79;1716810;83;21123;-74
2022/10/17 12:04:41;;;;;;;3.67;2.35;;;;;;;28.12;26.58;97089.59;1709377;83;21049;-74
2022/10/17 12:07:31;;;;;;;3.17;2.50;;;;;;;27.84;27.79;97084.61;1713114;82;21609;-74